Time;durP1;ratioP1;P1;durP2;ratioP2;P2;SDS_P1;SDS_P2;PMS_P1;PMS_P2;Temp;Humidity;BMP_temperature;BMP_pressure;BME280_temperature;BME280_humidity;BME280_pressure;Samples;Min_cycle;Max_cycle;Signal;HPM_P1;HPM_P2
2023/08/15 00:01:23;;;;;;;6.70;6.10;;;20.80;99.90;;;;;;6278458;28;20052;-85
2023/08/15 00:04:25;;;;;;;12.70;5.90;;;20.80;99.90;;;;;;6277243;28;20045;-85
2023/08/15 00:07:27;;;;;;;17.80;6.40;;;20.80;99.90;;;;;;6279091;28;20056;-83
2023/08/15 00:10:28;;;;;;;8.85;6.88;;;20.80;99.90;;;;;;6277711;28;20054;-84
2023/08/15 00:13:30;;;;;;;10.05;5.97;;;20.70;99.90;;;;;;6276930;28;20049;-83
2023/08/15 00:16:33;;;;;;;9.77;6.57;;;20.70;99.90;;;;;;6277869;28;20049;-84
2023/08/15 00:19:35;;;;;;;10.30;6.38;;;20.70;99.90;;;;;;6278185;28;20110;-84
2023/08/15 00:22:37;;;;;;;9.35;6.40;;;20.60;99.90;;;;;;6277564;28;20048;-84
2023/08/15 00:25:38;;;;;;;7.18;6.25;;;20.60;99.90;;;;;;6302077;28;20044;-83
2023/08/15 00:28:40;;;;;;;13.68;8.45;;;20.50;99.90;;;;;;6305612;28;20710;-83
2023/08/15 00:31:43;;;;;;;13.77;7.15;;;20.50;99.90;;;;;;6302564;28;20049;-84
2023/08/15 00:34:45;;;;;;;11.43;6.68;;;20.50;99.90;;;;;;6302082;28;20072;-83
2023/08/15 00:37:47;;;;;;;10.15;5.95;;;20.50;99.90;;;;;;6303430;28;20051;-85
2023/08/15 00:40:48;;;;;;;11.05;5.97;;;20.50;99.90;;;;;;6302886;28;20037;-83
2023/08/15 00:43:50;;;;;;;8.93;6.93;;;20.50;99.90;;;;;;6302075;28;20056;-83
2023/08/15 00:46:53;;;;;;;7.35;5.57;;;20.40;99.90;;;;;;6304448;28;20044;-83
2023/08/15 00:49:55;;;;;;;10.38;6.05;;;20.40;99.90;;;;;;6303508;28;20044;-83
2023/08/15 00:52:57;;;;;;;9.40;6.43;;;20.40;99.90;;;;;;6304115;28;20060;-82
2023/08/15 00:55:59;;;;;;;11.25;6.88;;;20.40;99.90;;;;;;6303400;28;20075;-82
2023/08/15 00:59:02;;;;;;;13.20;7.25;;;20.30;99.90;;;;;;6304091;28;20059;-84
2023/08/15 01:02:06;;;;;;;10.20;5.43;;;20.30;99.90;;;;;;6303893;28;20041;-82
2023/08/15 01:05:08;;;;;;;9.65;6.55;;;20.20;99.90;;;;;;6303575;28;20062;-84
2023/08/15 01:08:09;;;;;;;8.98;7.05;;;20.30;99.90;;;;;;6302703;28;20044;-83
2023/08/15 01:11:11;;;;;;;12.13;8.57;;;20.30;99.90;;;;;;6301358;28;20184;-83
2023/08/15 01:14:17;;;;;;;8.48;5.82;;;20.30;99.90;;;;;;6304169;28;20399;-82
2023/08/15 01:17:26;;;;;;;8.05;6.22;;;20.20;99.90;;;;;;6306785;28;20139;-84
2023/08/15 01:20:32;;;;;;;9.55;6.72;;;20.20;99.90;;;;;;6306444;28;20048;-83
2023/08/15 01:23:43;;;;;;;11.40;6.07;;;20.20;99.90;;;;;;6307191;28;20071;-84
2023/08/15 01:26:45;;;;;;;7.50;6.68;;;20.20;99.90;;;;;;6306447;28;20412;-83
2023/08/15 01:29:47;;;;;;;9.40;6.72;;;20.20;99.90;;;;;;6306676;28;20067;-83
2023/08/15 01:32:56;;;;;;;7.68;6.07;;;20.20;99.90;;;;;;6307090;28;20119;-83
2023/08/15 01:36:05;;;;;;;10.70;7.00;;;20.20;99.90;;;;;;6307661;28;20128;-83
2023/08/15 01:39:08;;;;;;;9.38;7.25;;;20.30;99.90;;;;;;6306707;28;20048;-83
2023/08/15 01:42:12;;;;;;;9.45;6.70;;;20.20;99.90;;;;;;6306439;28;20171;-82
2023/08/15 01:45:14;;;;;;;9.95;6.22;;;20.20;99.90;;;;;;6306050;28;20526;-83
2023/08/15 01:48:16;;;;;;;8.15;6.45;;;20.20;99.90;;;;;;6298568;28;20045;-83
2023/08/15 01:51:18;;;;;;;12.70;6.53;;;20.30;99.90;;;;;;6306576;28;20447;-82
2023/08/15 01:54:21;;;;;;;14.43;6.60;;;20.30;99.90;;;;;;6306537;28;20040;-82
2023/08/15 01:57:23;;;;;;;6.82;6.13;;;20.20;99.90;;;;;;6306767;28;20044;-82
2023/08/15 02:00:24;;;;;;;7.35;6.53;;;20.20;99.90;;;;;;6306179;28;20389;-83
2023/08/15 02:03:26;;;;;;;10.32;9.20;;;20.20;99.90;;;;;;6306114;28;20132;-83
2023/08/15 02:06:28;;;;;;;9.77;6.60;;;20.20;99.90;;;;;;6308279;28;20040;-84
2023/08/15 02:09:31;;;;;;;8.00;7.15;;;20.20;99.90;;;;;;6306487;28;20040;-84
2023/08/15 02:12:33;;;;;;;7.05;6.35;;;20.20;99.90;;;;;;6306190;28;20053;-84
2023/08/15 02:15:35;;;;;;;10.02;6.18;;;20.20;99.90;;;;;;6307406;28;20055;-83
2023/08/15 02:18:36;;;;;;;8.93;6.63;;;20.20;99.90;;;;;;6306172;28;20044;-82
2023/08/15 02:21:38;;;;;;;8.93;6.93;;;20.20;99.90;;;;;;6305726;28;20063;-84
2023/08/15 02:24:41;;;;;;;10.57;8.40;;;20.30;99.90;;;;;;6305307;28;20127;-84
2023/08/15 02:27:43;;;;;;;10.27;7.30;;;20.30;99.90;;;;;;6292921;28;20049;-83
2023/08/15 02:30:44;;;;;;;16.00;7.75;;;20.30;99.90;;;;;;6281154;28;20060;-83
2023/08/15 02:33:46;;;;;;;8.43;7.18;;;20.40;99.90;;;;;;6281046;28;20045;-84
2023/08/15 02:36:48;;;;;;;9.20;6.85;;;20.50;99.90;;;;;;6282646;28;20045;-84
2023/08/15 02:39:51;;;;;;;9.95;7.28;;;20.50;99.90;;;;;;6281751;28;20053;-83
2023/08/15 02:42:52;;;;;;;8.38;7.05;;;20.60;99.90;;;;;;6283001;28;20040;-82
2023/08/15 02:45:54;;;;;;;7.95;7.15;;;20.60;99.90;;;;;;6278643;28;20041;-83
2023/08/15 02:48:56;;;;;;;9.23;7.50;;;20.70;99.90;;;;;;6279419;28;20045;-84
2023/08/15 02:51:58;;;;;;;10.57;7.10;;;20.70;99.90;;;;;;6279686;28;20045;-83
2023/08/15 02:55:01;;;;;;;10.82;6.80;;;20.70;99.90;;;;;;6280518;28;20071;-83
2023/08/15 02:58:03;;;;;;;9.93;6.13;;;20.80;99.90;;;;;;6277876;28;20045;-83
2023/08/15 03:01:04;;;;;;;6.57;5.85;;;20.80;99.90;;;;;;6279674;28;20052;-85
2023/08/15 03:04:07;;;;;;;15.52;7.88;;;20.80;99.90;;;;;;6278828;28;20048;-83
2023/08/15 03:07:08;;;;;;;8.63;5.70;;;20.70;99.90;;;;;;6279226;28;20547;-82
2023/08/15 03:10:12;;;;;;;7.28;6.65;;;20.70;99.90;;;;;;6278632;28;20051;-83
2023/08/15 03:13:13;;;;;;;9.70;6.68;;;20.60;99.90;;;;;;6278085;28;20140;-84
2023/08/15 03:16:15;;;;;;;10.05;6.78;;;20.50;99.90;;;;;;6278443;28;20150;-83
2023/08/15 03:19:17;;;;;;;10.35;6.57;;;20.50;99.90;;;;;;6280382;28;20372;-83
2023/08/15 03:22:18;;;;;;;7.28;6.57;;;20.50;99.90;;;;;;6279028;28;20041;-83
2023/08/15 03:25:21;;;;;;;13.70;7.35;;;20.50;99.90;;;;;;6277867;28;20151;-85
2023/08/15 03:28:23;;;;;;;8.30;6.53;;;20.60;99.90;;;;;;6278145;28;20497;-84
2023/08/15 03:31:25;;;;;;;7.72;6.80;;;20.50;99.90;;;;;;6277890;28;20061;-83
2023/08/15 03:34:26;;;;;;;8.25;7.45;;;20.40;99.90;;;;;;6276370;28;20048;-84
2023/08/15 03:37:28;;;;;;;9.80;6.97;;;20.40;99.90;;;;;;6277130;28;20048;-82
2023/08/15 03:40:31;;;;;;;11.50;7.40;;;20.30;99.90;;;;;;6277710;28;20047;-82
2023/08/15 03:43:34;;;;;;;11.93;7.82;;;20.30;99.90;;;;;;6278527;28;20045;-83
2023/08/15 03:46:35;;;;;;;15.23;6.53;;;20.20;99.90;;;;;;6277006;28;20048;-84
2023/08/15 03:49:37;;;;;;;10.07;8.10;;;20.20;99.90;;;;;;6277599;28;20041;-82
2023/08/15 03:52:39;;;;;;;11.45;7.75;;;20.30;99.90;;;;;;6280413;28;20041;-83
2023/08/15 03:55:42;;;;;;;12.52;6.85;;;20.20;99.90;;;;;;6278301;28;20097;-82
2023/08/15 03:58:44;;;;;;;13.77;8.13;;;20.20;99.90;;;;;;6278705;28;20045;-83
2023/08/15 04:01:45;;;;;;;11.35;7.32;;;20.10;99.90;;;;;;6278670;28;20045;-83
2023/08/15 04:04:47;;;;;;;11.77;7.97;;;20.10;99.90;;;;;;6279479;28;20037;-83
2023/08/15 04:07:49;;;;;;;14.38;7.55;;;20.00;99.90;;;;;;6278777;28;20049;-82
2023/08/15 04:10:52;;;;;;;10.68;7.40;;;20.10;99.90;;;;;;6278301;28;20056;-83
2023/08/15 04:13:54;;;;;;;9.52;8.45;;;20.00;99.90;;;;;;6278279;28;20044;-82
2023/08/15 04:16:55;;;;;;;12.55;8.13;;;20.00;99.90;;;;;;6277165;28;20060;-83
2023/08/15 04:19:57;;;;;;;11.90;8.40;;;20.10;99.90;;;;;;6277093;28;20049;-83
2023/08/15 04:22:59;;;;;;;8.27;7.43;;;20.10;99.90;;;;;;6278350;28;20041;-83
2023/08/15 04:26:02;;;;;;;14.27;8.85;;;20.20;99.90;;;;;;6277802;28;20061;-84
2023/08/15 04:29:03;;;;;;;10.35;8.07;;;20.10;99.90;;;;;;6276867;28;20439;-83
2023/08/15 04:32:05;;;;;;;12.38;7.65;;;20.20;99.90;;;;;;6277677;28;20044;-83
2023/08/15 04:35:08;;;;;;;15.25;7.30;;;20.20;99.90;;;;;;6285946;28;20052;-84
2023/08/15 04:38:10;;;;;;;14.38;7.93;;;20.20;99.90;;;;;;6301517;28;20418;-84
2023/08/15 04:41:16;;;;;;;12.02;6.90;;;20.30;99.90;;;;;;6301905;28;20048;-83
2023/08/15 04:44:17;;;;;;;9.50;7.22;;;20.20;99.90;;;;;;6301119;28;20060;-83
2023/08/15 04:47:19;;;;;;;11.57;6.35;;;20.30;99.90;;;;;;6302688;28;20072;-84
2023/08/15 04:50:21;;;;;;;7.97;7.18;;;20.30;99.90;;;;;;6306731;28;20052;-82
2023/08/15 04:53:22;;;;;;;12.35;7.07;;;20.20;99.90;;;;;;6319073;28;20058;-85
2023/08/15 04:56:25;;;;;;;9.02;8.15;;;20.20;99.90;;;;;;6307933;28;20063;-83
2023/08/15 04:59:27;;;;;;;14.77;7.90;;;20.10;99.90;;;;;;6306252;28;20048;-81
2023/08/15 05:02:29;;;;;;;10.98;7.15;;;20.10;99.90;;;;;;6305955;28;20048;-83
2023/08/15 05:05:30;;;;;;;13.18;7.28;;;20.10;99.90;;;;;;6305608;28;20045;-83
2023/08/15 05:08:32;;;;;;;8.50;7.68;;;20.10;99.90;;;;;;6306286;28;20028;-81
2023/08/15 05:11:35;;;;;;;10.93;7.53;;;20.20;99.90;;;;;;6307138;28;20052;-82
2023/08/15 05:14:37;;;;;;;9.88;7.47;;;20.30;99.90;;;;;;6303794;28;20051;-82
2023/08/15 05:17:38;;;;;;;11.77;7.60;;;20.30;99.90;;;;;;6302998;28;20051;-82
2023/08/15 05:20:40;;;;;;;15.93;7.50;;;20.40;99.90;;;;;;6303361;28;20055;-83
2023/08/15 05:23:41;;;;;;;8.75;6.05;;;20.50;99.90;;;;;;6302639;28;20411;-83
2023/08/15 05:26:44;;;;;;;7.10;6.47;;;20.80;99.90;;;;;;6304184;28;20056;-83
2023/08/15 05:29:46;;;;;;;11.43;7.85;;;21.10;99.90;;;;;;6303248;28;20066;-83
2023/08/15 05:32:48;;;;;;;10.20;5.32;;;21.50;99.90;;;;;;6302486;28;20048;-83
2023/08/15 05:35:49;;;;;;;14.60;6.05;;;21.90;99.90;;;;;;6303576;28;20048;-83
2023/08/15 05:38:51;;;;;;;6.40;5.80;;;22.30;99.90;;;;;;6303674;28;20049;-82
2023/08/15 05:41:54;;;;;;;7.97;5.25;;;22.70;99.90;;;;;;6302554;28;20055;-83
2023/08/15 05:44:56;;;;;;;7.47;5.90;;;23.00;99.90;;;;;;6289847;28;20045;-83
2023/08/15 05:47:58;;;;;;;7.32;6.13;;;23.40;99.90;;;;;;6279437;28;20049;-83
2023/08/15 05:51:00;;;;;;;11.27;5.80;;;23.60;99.90;;;;;;6281532;28;20203;-83
2023/08/15 05:54:02;;;;;;;10.90;6.07;;;23.70;99.90;;;;;;6280994;28;20037;-83
2023/08/15 05:57:05;;;;;;;14.27;7.75;;;23.80;99.90;;;;;;6281677;28;20045;-83
2023/08/15 06:00:08;;;;;;;10.27;6.20;;;23.80;99.90;;;;;;6278024;28;20051;-84
2023/08/15 06:03:10;;;;;;;8.95;6.70;;;23.70;99.90;;;;;;6254064;28;20049;-84
2023/08/15 06:06:11;;;;;;;11.50;7.07;;;23.70;99.90;;;;;;6282660;28;20048;-83
2023/08/15 06:09:14;;;;;;;11.43;8.52;;;23.60;99.90;;;;;;6290169;28;20052;-81
2023/08/15 06:12:17;;;;;;;10.05;7.25;;;23.60;99.90;;;;;;6302464;28;20128;-83
2023/08/15 06:15:19;;;;;;;15.30;7.47;;;23.60;99.90;;;;;;6299546;28;20226;-84
2023/08/15 06:18:21;;;;;;;10.13;6.13;;;23.70;99.90;;;;;;6293541;28;20499;-83
2023/08/15 06:21:22;;;;;;;9.85;7.10;;;23.70;99.90;;;;;;6301151;28;20045;-83
2023/08/15 06:24:24;;;;;;;8.07;7.15;;;23.80;99.90;;;;;;6301369;28;20060;-81
2023/08/15 06:27:27;;;;;;;7.90;6.03;;;24.00;99.90;;;;;;6301061;28;20052;-84
2023/08/15 06:30:29;;;;;;;8.45;6.72;;;24.20;99.90;;;;;;6299483;28;20048;-82
2023/08/15 06:33:31;;;;;;;15.00;7.20;;;24.20;99.90;;;;;;6299779;28;20044;-83
2023/08/15 06:36:33;;;;;;;13.65;7.93;;;24.20;99.90;;;;;;6299549;28;20040;-82
2023/08/15 06:39:35;;;;;;;7.80;7.07;;;24.30;99.90;;;;;;6297364;28;20220;-82
2023/08/15 06:42:38;;;;;;;9.35;7.68;;;24.30;99.90;;;;;;6293539;28;20485;-85
2023/08/15 06:45:40;;;;;;;9.73;6.88;;;24.30;99.90;;;;;;6274707;28;20476;-83
2023/08/15 06:48:42;;;;;;;8.77;7.88;;;24.40;99.90;;;;;;6298048;28;20048;-83
2023/08/15 06:51:43;;;;;;;10.27;7.70;;;24.50;99.90;;;;;;6298711;28;20053;-81
2023/08/15 06:54:46;;;;;;;12.75;7.97;;;24.60;99.90;;;;;;6299319;28;20052;-82
2023/08/15 06:57:49;;;;;;;11.63;6.63;;;24.70;99.90;;;;;;6296975;28;20526;-82
2023/08/15 07:00:51;;;;;;;13.40;9.00;;;25.40;99.90;;;;;;6299812;28;20668;-83
2023/08/15 07:03:52;;;;;;;10.00;6.97;;;26.60;99.90;;;;;;6298308;28;20067;-82
2023/08/15 07:06:56;;;;;;;7.30;6.55;;;27.60;99.90;;;;;;6298718;28;20522;-80
2023/08/15 07:09:58;;;;;;;7.32;6.38;;;28.60;99.90;;;;;;6298328;28;20056;-83
2023/08/15 07:13:01;;;;;;;12.35;5.93;;;29.70;99.90;;;;;;6297215;28;20523;-79
2023/08/15 07:16:03;;;;;;;8.57;5.57;;;30.40;99.90;;;;;;6298827;28;20040;-81
2023/08/15 07:19:05;;;;;;;6.20;5.65;;;31.00;99.90;;;;;;6298512;28;20041;-82
2023/08/15 07:22:07;;;;;;;9.20;7.68;;;31.70;99.90;;;;;;6298062;28;20040;-81
2023/08/15 07:25:09;;;;;;;6.85;6.28;;;32.10;99.10;;;;;;6298580;28;20040;-82
2023/08/15 07:28:13;;;;;;;9.18;5.97;;;31.80;97.40;;;;;;6299288;28;20464;-83
2023/08/15 07:31:15;;;;;;;11.95;6.72;;;31.30;97.10;;;;;;6298968;28;20053;-82
2023/08/15 07:34:16;;;;;;;7.10;6.40;;;31.10;97.40;;;;;;6296682;28;20048;-81
2023/08/15 07:37:18;;;;;;;7.22;6.28;;;30.90;97.00;;;;;;6297941;28;20048;-82
2023/08/15 07:40:21;;;;;;;6.78;6.13;;;30.50;97.00;;;;;;6274184;28;20040;-83
2023/08/15 07:43:24;;;;;;;9.75;7.00;;;30.00;96.90;;;;;;6299220;28;20048;-83
2023/08/15 07:46:27;;;;;;;7.00;6.30;;;29.40;97.30;;;;;;6298536;28;20048;-81
2023/08/15 07:49:31;;;;;;;7.00;6.30;;;28.90;98.00;;;;;;6298492;28;20071;-82
2023/08/15 07:52:33;;;;;;;7.10;6.00;;;28.50;98.60;;;;;;6298681;28;20530;-82
2023/08/15 07:55:37;;;;;;;10.35;7.28;;;28.20;99.20;;;;;;6300021;28;20505;-82
2023/08/15 07:58:40;;;;;;;8.30;6.68;;;28.00;99.90;;;;;;6298065;28;20396;-82
2023/08/15 08:01:41;;;;;;;9.63;6.90;;;28.00;99.90;;;;;;6298426;28;20052;-81
2023/08/15 08:04:43;;;;;;;8.82;7.88;;;28.40;99.90;;;;;;6299111;28;20682;-81
2023/08/15 08:07:45;;;;;;;10.30;6.55;;;29.50;99.90;;;;;;6280436;28;20048;-82
2023/08/15 08:10:47;;;;;;;8.85;7.95;;;30.70;99.70;;;;;;6277611;28;20487;-82
2023/08/15 08:13:50;;;;;;;10.05;7.13;;;31.70;98.10;;;;;;6298060;28;20037;-82
2023/08/15 08:16:51;;;;;;;7.45;6.30;;;32.50;96.10;;;;;;6299255;28;20052;-81
2023/08/15 08:19:54;;;;;;;12.80;9.80;;;33.10;94.80;;;;;;6295908;28;20048;-82
2023/08/15 08:22:55;;;;;;;7.22;6.10;;;33.40;93.20;;;;;;6299255;28;20052;-83
2023/08/15 08:25:57;;;;;;;5.78;5.00;;;33.50;92.20;;;;;;6304212;28;20048;-83
2023/08/15 08:29:00;;;;;;;7.32;6.07;;;33.40;91.20;;;;;;6303579;28;20052;-82
2023/08/15 08:32:02;;;;;;;8.95;6.32;;;33.70;90.40;;;;;;6303440;28;20045;-83
2023/08/15 08:35:05;;;;;;;16.27;7.47;;;33.90;88.70;;;;;;6303240;28;20040;-83
2023/08/15 08:38:07;;;;;;;8.95;5.93;;;33.80;88.60;;;;;;6303336;28;20051;-83
2023/08/15 08:41:09;;;;;;;5.63;5.10;;;34.50;86.50;;;;;;6286734;28;20052;-83
2023/08/15 08:44:13;;;;;;;5.15;4.75;;;34.50;84.40;;;;;;6303432;28;20056;-83
2023/08/15 08:47:16;;;;;;;8.52;4.75;;;34.50;82.80;;;;;;6304080;28;20530;-83
2023/08/15 08:50:18;;;;;;;9.63;6.20;;;34.70;81.80;;;;;;6303089;28;20044;-83
2023/08/15 08:53:19;;;;;;;12.30;5.75;;;34.70;80.70;;;;;;6302415;28;20052;-83
2023/08/15 08:56:23;;;;;;;10.02;5.65;;;34.30;79.80;;;;;;6302662;28;20044;-83
2023/08/15 08:59:28;;;;;;;14.55;7.28;;;33.50;80.20;;;;;;6305352;28;20048;-83
2023/08/15 09:02:29;;;;;;;7.95;6.50;;;32.70;82.10;;;;;;6302440;28;20044;-85
2023/08/15 09:05:31;;;;;;;12.48;7.38;;;32.50;83.90;;;;;;6304385;28;20059;-85
2023/08/15 09:08:33;;;;;;;7.72;6.28;;;32.40;84.70;;;;;;6303835;28;20123;-83
2023/08/15 09:11:35;;;;;;;8.38;6.93;;;32.10;85.40;;;;;;6292706;28;20053;-85
2023/08/15 09:14:41;;;;;;;15.38;5.70;;;31.70;86.60;;;;;;6278100;28;20488;-84
2023/08/15 09:17:44;;;;;;;6.10;5.27;;;32.10;87.60;;;;;;6276634;28;20060;-84
2023/08/15 09:20:46;;;;;;;12.23;5.80;;;33.00;86.10;;;;;;6278632;28;20475;-84
2023/08/15 09:23:48;;;;;;;11.32;6.05;;;33.80;84.10;;;;;;6276451;28;20052;-84
2023/08/15 09:26:49;;;;;;;6.78;5.43;;;34.20;82.60;;;;;;6278631;28;20053;-83
2023/08/15 09:29:52;;;;;;;12.98;5.95;;;34.30;80.40;;;;;;6277291;28;20056;-82
2023/08/15 09:32:54;;;;;;;8.30;5.85;;;34.40;79.30;;;;;;6278780;28;20427;-83
2023/08/15 09:35:56;;;;;;;10.93;5.40;;;34.50;78.30;;;;;;6276401;28;20055;-84
2023/08/15 09:38:59;;;;;;;12.10;6.13;;;34.30;78.10;;;;;;6291975;28;20130;-81
2023/08/15 09:42:01;;;;;;;8.65;5.50;;;33.90;78.50;;;;;;6288654;28;20495;-80
2023/08/15 09:45:05;;;;;;;7.75;5.63;;;33.50;78.90;;;;;;6285143;28;20435;-81
2023/08/15 09:48:08;;;;;;;7.88;6.68;;;33.10;80.00;;;;;;6302001;28;20047;-82
2023/08/15 09:51:13;;;;;;;7.43;6.07;;;32.90;81.40;;;;;;6302799;28;20045;-84
2023/08/15 09:54:18;;;;;;;6.32;5.72;;;32.70;81.50;;;;;;6302427;28;20048;-83
2023/08/15 09:57:19;;;;;;;8.00;6.78;;;32.50;82.70;;;;;;6303099;28;20058;-83
2023/08/15 10:00:22;;;;;;;8.70;5.95;;;32.20;83.90;;;;;;6301345;28;20526;-84
2023/08/15 10:03:29;;;;;;;12.90;6.45;;;32.00;84.90;;;;;;6302775;28;20059;-84
2023/08/15 10:06:31;;;;;;;7.68;6.15;;;31.80;85.80;;;;;;6294294;28;20564;-81
2023/08/15 10:09:33;;;;;;;11.70;6.50;;;31.40;86.70;;;;;;6289261;28;20049;-82
2023/08/15 10:12:37;;;;;;;11.02;6.65;;;31.20;86.70;;;;;;6302752;28;20040;-85
2023/08/15 10:15:40;;;;;;;9.05;6.07;;;31.00;86.50;;;;;;6305741;28;20048;-82
2023/08/15 10:18:52;;;;;;;7.72;7.05;;;30.70;86.10;;;;;;6301402;28;20053;-83
2023/08/15 10:21:55;;;;;;;9.63;6.40;;;30.50;87.20;;;;;;6279528;28;20055;-79
2023/08/15 10:25:16;;;;;;;15.57;6.95;;;30.20;88.30;;;;;;6292326;28;20055;-81
2023/08/15 10:28:20;;;;;;;9.98;6.20;;;30.10;88.90;;;;;;6306394;28;20044;-80
2023/08/15 10:31:35;;;;;;;7.88;5.80;;;30.20;88.70;;;;;;6291038;28;20060;-82
2023/08/15 10:34:36;;;;;;;26.15;6.35;;;30.10;88.20;;;;;;6312291;28;20044;-82
2023/08/15 10:37:41;;;;;;;10.00;5.82;;;30.10;88.20;;;;;;6299802;28;20049;-83
2023/08/15 10:40:46;;;;;;;7.28;5.43;;;30.10;87.00;;;;;;6290930;28;20051;-84
2023/08/15 10:43:51;;;;;;;11.25;6.55;;;30.10;87.30;;;;;;6310763;28;20120;-83
2023/08/15 10:46:52;;;;;;;6.63;5.63;;;29.90;87.80;;;;;;6308803;28;20052;-82
2023/08/15 10:49:54;;;;;;;10.52;6.20;;;29.90;88.30;;;;;;6310830;28;20053;-84
2023/08/15 10:52:59;;;;;;;10.27;6.13;;;29.80;88.90;;;;;;6305710;28;20517;-81
2023/08/15 10:56:04;;;;;;;6.43;5.72;;;29.90;89.90;;;;;;6306929;28;20114;-82
2023/08/15 10:59:09;;;;;;;7.90;6.90;;;30.30;90.00;;;;;;6306011;28;20052;-81
2023/08/15 11:02:11;;;;;;;10.82;6.93;;;30.80;89.10;;;;;;6304889;28;20063;-81
2023/08/15 11:05:14;;;;;;;7.45;6.38;;;31.20;89.10;;;;;;6303791;28;20048;-81
2023/08/15 11:08:18;;;;;;;8.95;6.70;;;31.70;87.20;;;;;;6298819;28;20043;-81
2023/08/15 11:11:20;;;;;;;9.52;5.80;;;31.80;85.40;;;;;;6292966;28;20048;-83
2023/08/15 11:14:23;;;;;;;8.93;6.13;;;31.80;85.20;;;;;;6299385;28;20040;-82
2023/08/15 11:17:25;;;;;;;6.85;6.03;;;31.60;85.40;;;;;;6300109;28;20045;-81
2023/08/15 11:20:29;;;;;;;7.93;6.85;;;31.70;84.90;;;;;;6301790;28;20044;-83
2023/08/15 11:23:31;;;;;;;9.00;6.10;;;31.80;84.50;;;;;;6302609;28;20049;-81
2023/08/15 11:26:33;;;;;;;7.32;5.90;;;31.80;84.50;;;;;;6301295;28;20503;-81
2023/08/15 11:29:36;;;;;;;10.77;6.00;;;32.00;84.10;;;;;;6279165;28;20041;-80
2023/08/15 11:32:40;;;;;;;7.60;6.47;;;32.30;82.60;;;;;;6280285;28;20040;-82
2023/08/15 11:35:42;;;;;;;10.73;5.97;;;32.10;82.10;;;;;;6287070;28;20059;-83
2023/08/15 11:38:44;;;;;;;8.23;5.90;;;31.90;81.60;;;;;;6299107;28;20055;-81
2023/08/15 11:41:46;;;;;;;9.23;5.97;;;32.10;81.00;;;;;;6278752;28;20504;-80
2023/08/15 11:45:01;;;;;;;5.50;5.05;;;32.20;80.30;;;;;;6276006;28;20037;-82
2023/08/15 11:48:05;;;;;;;14.82;5.97;;;32.20;80.20;;;;;;6275453;28;20140;-81
2023/08/15 11:51:06;;;;;;;10.43;6.00;;;32.30;79.80;;;;;;6274350;28;20067;-80
2023/08/15 11:54:08;;;;;;;6.05;5.43;;;32.10;79.10;;;;;;6273866;28;20539;-80
2023/08/15 11:57:10;;;;;;;9.07;4.65;;;32.00;78.90;;;;;;6274207;28;20537;-80
2023/08/15 12:00:16;;;;;;;8.27;4.70;;;32.20;78.40;;;;;;6276500;28;20690;-80
2023/08/15 12:03:17;;;;;;;8.60;4.90;;;32.20;78.10;;;;;;6275487;28;20049;-81
2023/08/15 12:06:19;;;;;;;7.05;3.70;;;32.20;78.10;;;;;;6274399;28;20056;-81
2023/08/15 12:09:28;;;;;;;6.07;4.10;;;32.30;77.80;;;;;;6291701;28;20041;-81
2023/08/15 12:12:29;;;;;;;5.57;3.67;;;32.20;77.50;;;;;;6281054;28;20041;-80
2023/08/15 12:15:32;;;;;;;4.80;3.20;;;32.00;77.30;;;;;;6273860;28;20041;-79
2023/08/15 12:18:35;;;;;;;7.07;2.97;;;32.00;77.10;;;;;;6274865;28;20064;-81
2023/08/15 12:21:36;;;;;;;4.97;3.42;;;32.10;76.50;;;;;;6294088;28;20055;-80
2023/08/15 12:24:38;;;;;;;2.97;2.10;;;32.50;76.20;;;;;;6287179;28;20038;-82
2023/08/15 12:27:40;;;;;;;2.95;2.45;;;32.80;74.40;;;;;;6273747;28;20048;-81
2023/08/15 12:30:43;;;;;;;2.33;2.03;;;33.00;72.70;;;;;;6274704;28;20056;-81
2023/08/15 12:33:44;;;;;;;5.53;2.10;;;33.00;70.90;;;;;;6276487;28;20052;-80
2023/08/15 12:36:46;;;;;;;2.20;2.03;;;33.50;70.10;;;;;;6296471;28;20067;-81
2023/08/15 12:39:48;;;;;;;6.30;2.22;;;33.90;69.00;;;;;;6277207;28;20056;-80
2023/08/15 12:42:50;;;;;;;5.68;2.25;;;34.20;67.90;;;;;;6294419;28;20072;-80
2023/08/15 12:45:54;;;;;;;4.00;2.80;;;34.30;67.40;;;;;;6297715;28;20044;-80
2023/08/15 12:48:58;;;;;;;3.08;2.25;;;34.30;66.40;;;;;;6297656;28;20111;-79
2023/08/15 12:52:00;;;;;;;3.95;1.88;;;34.10;66.60;;;;;;6274245;28;20053;-80
2023/08/15 12:55:02;;;;;;;4.05;2.58;;;33.90;65.90;;;;;;6274069;28;20480;-80
2023/08/15 12:58:04;;;;;;;2.50;2.17;;;33.60;66.50;;;;;;6296725;28;20422;-79
2023/08/15 13:01:07;;;;;;;3.30;2.33;;;33.90;67.00;;;;;;6290204;28;20056;-80
2023/08/15 13:04:11;;;;;;;6.38;2.78;;;34.50;66.60;;;;;;6287964;28;20044;-80
2023/08/15 13:07:13;;;;;;;3.80;2.47;;;34.90;65.90;;;;;;6297784;28;20045;-80
2023/08/15 13:10:15;;;;;;;3.38;1.92;;;35.10;64.90;;;;;;6299742;28;20051;-81
2023/08/15 13:13:17;;;;;;;4.43;1.60;;;35.10;64.50;;;;;;6292244;28;20055;-81
2023/08/15 13:16:20;;;;;;;4.65;1.58;;;35.40;64.10;;;;;;6278047;28;20055;-79
2023/08/15 13:19:21;;;;;;;5.18;1.70;;;35.40;63.90;;;;;;6277412;28;20049;-80
2023/08/15 13:22:23;;;;;;;2.35;1.50;;;35.50;63.60;;;;;;6276708;28;20128;-79
2023/08/15 13:25:25;;;;;;;4.20;1.77;;;35.60;63.00;;;;;;6276821;28;20048;-81
2023/08/15 13:28:26;;;;;;;5.60;1.67;;;35.40;62.90;;;;;;6277453;28;20044;-80
2023/08/15 13:31:29;;;;;;;2.03;1.83;;;35.00;63.40;;;;;;6276748;28;20519;-81
2023/08/15 13:34:31;;;;;;;2.72;1.73;;;34.50;64.00;;;;;;6277348;28;20060;-80
2023/08/15 13:37:33;;;;;;;3.58;1.77;;;34.20;64.60;;;;;;6278275;28;20533;-80
2023/08/15 13:40:34;;;;;;;3.13;1.25;;;34.00;65.00;;;;;;6293299;28;20056;-81
2023/08/15 13:43:36;;;;;;;1.65;1.55;;;33.70;64.90;;;;;;6302693;28;20055;-81
2023/08/15 13:46:39;;;;;;;3.90;1.63;;;33.40;65.20;;;;;;6302451;28;20041;-81
2023/08/15 13:49:42;;;;;;;1.95;1.65;;;33.30;66.10;;;;;;6302727;28;20052;-81
2023/08/15 13:52:43;;;;;;;2.20;1.35;;;33.40;66.10;;;;;;6302308;28;20045;-80
2023/08/15 13:55:45;;;;;;;3.60;1.58;;;33.40;65.70;;;;;;6302292;28;20055;-80
2023/08/15 13:58:46;;;;;;;2.35;1.58;;;33.30;65.80;;;;;;6302049;28;20458;-79
2023/08/15 14:01:49;;;;;;;2.63;1.60;;;33.40;66.30;;;;;;6301539;28;20427;-79
2023/08/15 14:04:52;;;;;;;3.95;1.55;;;33.60;66.30;;;;;;6301689;28;20040;-80
2023/08/15 14:07:53;;;;;;;1.42;1.27;;;33.40;66.20;;;;;;6299978;28;20044;-82
2023/08/15 14:10:55;;;;;;;18.65;16.25;;;33.30;66.40;;;;;;6296628;28;20059;-82
2023/08/15 14:13:57;;;;;;;25.33;22.33;;;33.20;66.50;;;;;;6275671;28;20696;-81
2023/08/15 14:17:00;;;;;;;9.10;4.30;;;33.20;65.90;;;;;;6276574;28;20052;-80
2023/08/15 14:20:03;;;;;;;2.90;2.42;;;33.10;65.10;;;;;;6276824;28;20045;-81
2023/08/15 14:23:06;;;;;;;5.28;2.60;;;32.90;65.30;;;;;;6291258;28;20052;-81
2023/08/15 14:26:07;;;;;;;2.00;1.80;;;32.70;66.10;;;;;;6299823;28;20052;-82
2023/08/15 14:29:09;;;;;;;3.05;1.50;;;32.80;66.60;;;;;;6301049;28;20049;-81
2023/08/15 14:32:12;;;;;;;1.23;1.13;;;33.00;66.50;;;;;;6299759;28;20041;-82
2023/08/15 14:35:14;;;;;;;6.82;1.70;;;33.40;65.70;;;;;;6284070;28;20500;-78
2023/08/15 14:38:16;;;;;;;1.73;1.63;;;33.70;65.60;;;;;;6284856;28;20044;-80
2023/08/15 14:41:18;;;;;;;4.70;1.48;;;33.80;65.00;;;;;;6284428;28;20126;-80
2023/08/15 14:44:19;;;;;;;3.55;1.90;;;33.60;64.90;;;;;;6276472;28;20045;-80
2023/08/15 14:47:29;;;;;;;4.10;2.05;;;33.20;65.50;;;;;;6277150;28;20060;-81
2023/08/15 14:50:31;;;;;;;2.28;1.23;;;32.80;65.50;;;;;;6277247;28;20056;-80
2023/08/15 14:53:32;;;;;;;1.92;1.20;;;32.40;66.20;;;;;;6277996;28;20049;-79
2023/08/15 14:56:34;;;;;;;4.70;1.58;;;32.10;66.20;;;;;;6282534;28;20041;-79
2023/08/15 14:59:36;;;;;;;2.95;1.77;;;31.80;66.40;;;;;;6280071;28;20084;-79
2023/08/15 15:02:42;;;;;;;2.90;1.27;;;31.50;66.60;;;;;;6282272;28;20416;-80
2023/08/15 15:05:43;;;;;;;3.20;1.27;;;31.30;67.00;;;;;;6283869;28;20045;-78
2023/08/15 15:08:45;;;;;;;2.30;1.45;;;31.20;67.50;;;;;;6290021;28;20116;-80
2023/08/15 15:11:47;;;;;;;3.13;2.53;;;31.00;67.90;;;;;;6291038;28;20071;-78
2023/08/15 15:14:48;;;;;;;1.58;1.40;;;31.00;68.60;;;;;;6306357;28;20052;-78
2023/08/15 15:17:51;;;;;;;2.35;1.50;;;31.00;68.90;;;;;;6305303;28;20044;-80
2023/08/15 15:20:55;;;;;;;1.80;1.40;;;31.00;69.10;;;;;;6305538;28;20044;-78
2023/08/15 15:23:56;;;;;;;2.88;2.17;;;31.00;69.00;;;;;;6302633;28;20071;-79
2023/08/15 15:26:59;;;;;;;1.48;1.15;;;31.10;69.40;;;;;;6303584;28;20048;-79
2023/08/15 15:30:00;;;;;;;3.72;1.70;;;31.50;69.20;;;;;;6300847;28;20040;-80
2023/08/15 15:33:03;;;;;;;1.67;1.40;;;31.60;68.70;;;;;;6284918;28;20053;-80
2023/08/15 15:36:05;;;;;;;2.97;1.30;;;31.90;68.60;;;;;;6274209;28;20056;-81
2023/08/15 15:39:07;;;;;;;8.82;1.23;;;32.30;68.20;;;;;;6289041;28;20044;-81
2023/08/15 15:42:09;;;;;;;4.43;1.35;;;32.60;67.00;;;;;;6282136;28;20068;-81
2023/08/15 15:45:11;;;;;;;3.60;1.42;;;32.80;66.50;;;;;;6273984;28;20049;-81